Spirit II — 9V3628 — position and weather

sailwx.info

Track history (hours):
 
Tides and Currents Weather Stations Pressure Air Temp Water Temp Dewpoint Dewpoint Depression Visibility Wind Speed Wind Dir Waves Ship Positions

Spirit II

Last reported at 2017-Nov-19 08:48 UTC. Time now 2017-Nov-19 20:10 UTC.
Position N 38°31' E 008°33'.

Length 252 m; draft 14.1 m.

Type: Tanker. MMSI: 566414000.

Date/timePositionNaut miles runAvg speedWind from/ knotsBaromVisibWave heightAir tempDewpointWater temp
2017-Nov-19 08:48N 38°31' E 008°33'324 8.0
2017-Nov-17 16:29N 40°46' E 002°11'1 1.1
2017-Nov-17 15:58N 40°46' E 002°10'  
2017-Nov-14 12:57N 37°44' W 000°21'613.7
2017-Nov-14 12:30N 37°39' W 000°26'713.6
2017-Nov-14 12:00N 37°33' W 000°31'913.4
2017-Nov-14 11:20N 37°27' W 000°39'513.5
2017-Nov-14 10:57N 37°24' W 000°44'813.4
2017-Nov-14 10:22N 37°19' W 000°51'713.6
2017-Nov-14 09:53N 37°14' W 000°57'42012.3
2017-Nov-12 23:53N 37°06' W 009°44'5513.9
2017-Nov-12 19:54N 38°00' W 009°60'2213.8
2017-Nov-12 18:20N 38°22' W 010°06'614.2
2017-Nov-12 17:56N 38°27' W 010°08'913.8
2017-Nov-12 17:17N 38°36' W 010°10'413.5
2017-Nov-12 17:00N 38°39' W 010°11'713.8
2017-Nov-12 16:29N 38°47' W 010°12'714.0
2017-Nov-12 16:00N 38°53' W 010°12'713.9
2017-Nov-12 15:30N 39°00' W 010°12'713.8
2017-Nov-12 15:00N 39°07' W 010°12'714.1
2017-Nov-12 14:29N 39°15' W 010°12'50113.5
2017-Nov-11 01:18N 47°18' W 007°06'10713.2
2017-Nov-10 17:10N 48°52' W 005°49'11010.9
2017-Nov-10 07:04N 49°49' W 003°25'113.6
2017-Nov-10 07:00N 49°49' W 003°23'714.0
2017-Nov-10 06:30N 49°53' W 003°14'714.4
2017-Nov-10 06:00N 49°57' W 003°05'714.6
2017-Nov-10 05:30N 50°01' W 002°56'714.7
2017-Nov-10 05:00N 50°03' W 002°45'714.8
2017-Nov-10 04:31N 50°04' W 002°34'2613.8
2017-Nov-10 02:40N 50°10' W 001°55'212.4
2017-Nov-10 02:29N 50°11' W 001°51'612.2
2017-Nov-10 02:00N 50°12' W 001°43'611.6
2017-Nov-10 01:30N 50°14' W 001°34'611.3
2017-Nov-10 01:00N 50°15' W 001°25'3711.6
2017-Nov-09 21:50N 50°25' W 000°29'413.7
2017-Nov-09 21:31N 50°26' W 000°23'714.1
2017-Nov-09 21:00N 50°29' W 000°13'714.5
2017-Nov-09 20:30N 50°30' W 000°01'815.0
2017-Nov-09 20:00N 50°31' E 000°10'815.2
2017-Nov-09 19:30N 50°33' E 000°22'815.1
2017-Nov-09 19:01N 50°35' E 000°33'714.7
2017-Nov-09 18:30N 50°39' E 000°43'714.4
2017-Nov-09 18:00N 50°44' E 000°52'713.6
2017-Nov-09 17:30N 50°48' E 001°00'713.1
2017-Nov-09 16:59N 50°51' E 001°10'612.5
2017-Nov-09 16:30N 50°54' E 001°18'611.5
2017-Nov-09 16:00N 50°59' E 001°24'511.0
2017-Nov-09 15:30N 51°03' E 001°29'611.3
2017-Nov-09 15:00N 51°07' E 001°36'611.7
2017-Nov-09 14:30N 51°11' E 001°43'612.5
2017-Nov-09 14:00N 51°16' E 001°49'713.8
2017-Nov-09 13:31N 51°22' E 001°55'714.8
2017-Nov-09 13:00N 51°28' E 002°01'815.1
2017-Nov-09 12:30N 51°34' E 002°09'815.3
2017-Nov-09 11:58N 51°40' E 002°17'  
Track history (hours):
 
Tides and Currents Weather Stations Pressure Air Temp Water Temp Dewpoint Dewpoint Depression Visibility Wind Speed Wind Dir Waves Ship Positions

Spirit II

Last reported at 2017-Nov-19 08:48 UTC. Time now 2017-Nov-19 20:10 UTC.
Position N 38°31' E 008°33'.

Length 252 m; draft 14.1 m.

Type: Tanker. MMSI: 566414000.

Date/timePositionNaut miles runAvg speedWind from/ knotsBaromVisibWave heightAir tempDewpointWater temp
2017-Nov-19 08:48N 38°31' E 008°33'324 8.0
2017-Nov-17 16:29N 40°46' E 002°11'1 1.1
2017-Nov-17 15:58N 40°46' E 002°10'  
2017-Nov-14 12:57N 37°44' W 000°21'613.7
2017-Nov-14 12:30N 37°39' W 000°26'713.6
2017-Nov-14 12:00N 37°33' W 000°31'913.4
2017-Nov-14 11:20N 37°27' W 000°39'513.5
2017-Nov-14 10:57N 37°24' W 000°44'813.4
2017-Nov-14 10:22N 37°19' W 000°51'713.6
2017-Nov-14 09:53N 37°14' W 000°57'42012.3
2017-Nov-12 23:53N 37°06' W 009°44'5513.9
2017-Nov-12 19:54N 38°00' W 009°60'2213.8
2017-Nov-12 18:20N 38°22' W 010°06'614.2
2017-Nov-12 17:56N 38°27' W 010°08'913.8
2017-Nov-12 17:17N 38°36' W 010°10'413.5
2017-Nov-12 17:00N 38°39' W 010°11'713.8
2017-Nov-12 16:29N 38°47' W 010°12'714.0
2017-Nov-12 16:00N 38°53' W 010°12'713.9
2017-Nov-12 15:30N 39°00' W 010°12'713.8
2017-Nov-12 15:00N 39°07' W 010°12'714.1
2017-Nov-12 14:29N 39°15' W 010°12'50113.5
2017-Nov-11 01:18N 47°18' W 007°06'10713.2
2017-Nov-10 17:10N 48°52' W 005°49'11010.9
2017-Nov-10 07:04N 49°49' W 003°25'113.6
2017-Nov-10 07:00N 49°49' W 003°23'714.0
2017-Nov-10 06:30N 49°53' W 003°14'714.4
2017-Nov-10 06:00N 49°57' W 003°05'714.6
2017-Nov-10 05:30N 50°01' W 002°56'714.7
2017-Nov-10 05:00N 50°03' W 002°45'714.8
2017-Nov-10 04:31N 50°04' W 002°34'2613.8
2017-Nov-10 02:40N 50°10' W 001°55'212.4
2017-Nov-10 02:29N 50°11' W 001°51'612.2
2017-Nov-10 02:00N 50°12' W 001°43'611.6
2017-Nov-10 01:30N 50°14' W 001°34'611.3
2017-Nov-10 01:00N 50°15' W 001°25'3711.6
2017-Nov-09 21:50N 50°25' W 000°29'413.7
2017-Nov-09 21:31N 50°26' W 000°23'714.1
2017-Nov-09 21:00N 50°29' W 000°13'714.5
2017-Nov-09 20:30N 50°30' W 000°01'815.0
2017-Nov-09 20:00N 50°31' E 000°10'815.2
2017-Nov-09 19:30N 50°33' E 000°22'815.1
2017-Nov-09 19:01N 50°35' E 000°33'714.7
2017-Nov-09 18:30N 50°39' E 000°43'714.4
2017-Nov-09 18:00N 50°44' E 000°52'713.6
2017-Nov-09 17:30N 50°48' E 001°00'713.1
2017-Nov-09 16:59N 50°51' E 001°10'612.5
2017-Nov-09 16:30N 50°54' E 001°18'611.5
2017-Nov-09 16:00N 50°59' E 001°24'511.0
2017-Nov-09 15:30N 51°03' E 001°29'611.3
2017-Nov-09 15:00N 51°07' E 001°36'611.7
2017-Nov-09 14:30N 51°11' E 001°43'612.5
2017-Nov-09 14:00N 51°16' E 001°49'713.8
2017-Nov-09 13:31N 51°22' E 001°55'714.8
2017-Nov-09 13:00N 51°28' E 002°01'815.1
2017-Nov-09 12:30N 51°34' E 002°09'815.3
2017-Nov-09 11:58N 51°40' E 002°17'  

Dump ship's entire track history